createdAt,value
2022-09-27T00:01:13.088Z,98421.81
2022-09-27T00:03:42.101Z,98418.25
2022-09-27T00:06:13.770Z,98417.41
2022-09-27T00:08:40.740Z,98421.81
2022-09-27T00:11:30.843Z,98417.41
2022-09-27T00:13:58.844Z,98404.16
2022-09-27T00:16:31.143Z,98407.75
2022-09-27T00:19:06.788Z,98411.28
2022-09-27T00:21:33.412Z,98399.88
2022-09-27T00:24:00.622Z,98408.69
2022-09-27T00:26:27.594Z,98401.66
2022-09-27T00:28:54.192Z,98404.38
2022-09-27T00:31:30.633Z,98407.91
2022-09-27T00:34:00.387Z,98406.09
2022-09-27T00:36:28.612Z,98395.47
2022-09-27T00:38:56.184Z,98391.09
2022-09-27T00:41:25.747Z,98383.22
2022-09-27T00:43:56.842Z,98387.69
2022-09-27T00:46:50.467Z,98375.41
2022-09-27T00:49:26.242Z,98373.66
2022-09-27T00:52:01.260Z,98371.06
2022-09-27T00:54:30.578Z,98363.16
2022-09-27T00:56:58.306Z,98358.72
2022-09-27T00:59:35.863Z,98360.56
2022-09-27T01:02:06.252Z,98358.72
2022-09-27T01:04:34.892Z,98356.13
2022-09-27T01:07:01.404Z,98366.75
2022-09-27T01:09:29.083Z,98356.97
2022-09-27T01:12:20.426Z,98356.13
2022-09-27T01:15:05.779Z,98353.38
2022-09-27T01:18:00.062Z,98347.16
2022-09-27T01:20:59.184Z,98335.69
2022-09-27T01:24:01.206Z,98346.31
2022-09-27T01:26:44.695Z,98336.53
2022-09-27T01:29:14.064Z,98331.22
2022-09-27T01:31:59.862Z,98332.13
2022-09-27T01:34:34.982Z,98325.91
2022-09-27T01:37:18.444Z,98326.75
2022-09-27T01:39:50.974Z,98326.69
2022-09-27T01:42:48.581Z,98319.69
2022-09-27T01:45:30.449Z,98325.09
2022-09-27T01:48:21.254Z,98318.03
2022-09-27T01:50:57.309Z,98325.13
2022-09-27T01:53:37.881Z,98311.06
2022-09-27T01:56:46.151Z,98320.91
2022-09-27T01:59:29.521Z,98310.31
2022-09-27T02:02:10.008Z,98317.34
2022-09-27T02:05:01.141Z,98316.50
2022-09-27T02:07:34.769Z,98305.97
2022-09-27T02:10:12.431Z,98306.88
2022-09-27T02:13:22.370Z,98301.63
2022-09-27T02:16:04.819Z,98299.84
2022-09-27T02:18:56.077Z,98297.22
2022-09-27T02:21:31.190Z,98293.69
2022-09-27T02:24:03.018Z,98296.31
2022-09-27T02:26:45.326Z,98293.72
2022-09-27T02:29:18.273Z,98295.50
2022-09-27T02:31:50.651Z,98294.72
2022-09-27T02:34:24.701Z,98295.66
2022-09-27T02:36:53.507Z,98300.09
2022-09-27T02:39:20.639Z,98307.22
2022-09-27T02:41:52.004Z,98300.13
2022-09-27T02:44:21.223Z,98298.41
2022-09-27T02:47:06.215Z,98292.19
2022-09-27T02:49:53.428Z,98288.72
2022-09-27T02:53:14.031Z,98286.16
2022-09-27T02:56:07.587Z,98283.59
2022-09-27T02:58:59.703Z,98290.63
2022-09-27T03:02:08.672Z,98287.06
2022-09-27T03:05:05.756Z,98287.06
2022-09-27T03:07:32.480Z,98280.88
2022-09-27T03:09:59.309Z,98279.94
2022-09-27T03:12:26.378Z,98276.38
2022-09-27T03:14:56.432Z,98282.53
2022-09-27T03:17:41.697Z,98284.34
2022-09-27T03:20:43.283Z,98280.75
2022-09-27T03:23:16.380Z,98278.09
2022-09-27T03:25:43.292Z,98278.09
2022-09-27T03:28:12.896Z,98267.50
2022-09-27T03:30:42.290Z,98273.72
2022-09-27T03:33:09.790Z,98275.50
2022-09-27T03:35:36.936Z,98265.84
2022-09-27T03:38:04.450Z,98268.56
2022-09-27T03:40:31.065Z,98262.38
2022-09-27T03:42:57.849Z,98265.03
2022-09-27T03:45:24.606Z,98265.97
2022-09-27T03:47:51.212Z,98263.25
2022-09-27T03:50:17.829Z,98263.31
2022-09-27T03:52:44.961Z,98268.56
2022-09-27T03:55:12.679Z,98257.97
2022-09-27T03:57:39.884Z,98264.13
2022-09-27T04:00:09.277Z,98262.38
2022-09-27T04:02:38.359Z,98256.19
2022-09-27T04:05:24.941Z,98255.25
2022-09-27T04:07:56.331Z,98252.56
2022-09-27T04:10:23.429Z,98253.44
2022-09-27T04:12:50.724Z,98262.22
2022-09-27T04:15:19.613Z,98251.56
2022-09-27T04:17:49.195Z,98254.16
2022-09-27T04:20:36.997Z,98257.69
2022-09-27T04:23:07.378Z,98257.63
2022-09-27T04:25:36.427Z,98254.03
2022-09-27T04:28:17.309Z,98250.53
2022-09-27T04:30:45.277Z,98248.81
2022-09-27T04:33:11.717Z,98247.94
2022-09-27T04:36:05.782Z,98254.16
2022-09-27T04:38:34.202Z,98241.06
2022-09-27T04:41:01.950Z,98249.06
2022-09-27T04:43:32.757Z,98254.47
2022-09-27T04:45:59.349Z,98250.16
2022-09-27T04:48:26.347Z,98250.16
2022-09-27T04:51:02.187Z,98251.06
2022-09-27T04:53:29.760Z,98252.03
2022-09-27T04:55:57.117Z,98259.13
2022-09-27T04:58:25.225Z,98255.63
2022-09-27T05:00:52.398Z,98259.22
2022-09-27T05:03:47.629Z,98258.47
2022-09-27T05:06:15.331Z,98261.31
2022-09-27T05:08:42.434Z,98265.06
2022-09-27T05:11:29.434Z,98259.84
2022-09-27T05:14:14.459Z,98262.53
2022-09-27T05:17:04.134Z,98268.75
2022-09-27T05:19:34.634Z,98272.31
2022-09-27T05:22:13.936Z,98267.16
2022-09-27T05:24:40.796Z,98273.44
2022-09-27T05:27:10.016Z,98265.59
2022-09-27T05:29:37.076Z,98265.59
2022-09-27T05:32:11.840Z,98274.38
2022-09-27T05:34:38.375Z,98270.00
2022-09-27T05:37:05.090Z,98277.09
2022-09-27T05:39:36.875Z,98263.84
2022-09-27T05:42:05.127Z,98279.81
2022-09-27T05:44:31.789Z,98275.56
2022-09-27T05:47:05.562Z,98286.28
2022-09-27T05:49:32.813Z,98278.44
2022-09-27T05:52:00.860Z,98293.59
2022-09-27T05:54:29.649Z,98286.59
2022-09-27T05:56:58.315Z,98294.63
2022-09-27T05:59:42.081Z,98296.44
2022-09-27T06:02:28.634Z,98299.13
2022-09-27T06:05:14.698Z,98303.66
2022-09-27T06:08:02.494Z,98305.50
2022-09-27T06:10:34.900Z,98302.84
2022-09-27T06:13:06.453Z,98307.31
2022-09-27T06:15:39.203Z,98307.41
2022-09-27T06:18:17.129Z,98312.03
2022-09-27T06:20:46.300Z,98313.78
2022-09-27T06:23:15.527Z,98314.75
2022-09-27T06:25:43.045Z,98320.06
2022-09-27T06:28:18.986Z,98323.72
2022-09-27T06:30:50.635Z,98321.16
2022-09-27T06:33:35.672Z,98327.38
2022-09-27T06:36:07.627Z,98337.13
2022-09-27T06:38:36.373Z,98334.53
2022-09-27T06:41:11.014Z,98338.06
2022-09-27T06:44:13.206Z,98345.16
2022-09-27T06:46:59.625Z,98344.38
2022-09-27T06:49:43.258Z,98348.78
2022-09-27T06:52:10.507Z,98355.81
2022-09-27T06:54:37.011Z,98354.00
2022-09-27T06:57:03.547Z,98357.50
2022-09-27T06:59:48.945Z,98356.66
2022-09-27T07:02:47.885Z,98360.91
2022-09-27T07:05:34.635Z,98366.03
2022-09-27T07:08:13.272Z,98371.38
2022-09-27T07:10:41.006Z,98374.03
2022-09-27T07:13:09.312Z,98369.59
2022-09-27T07:15:37.234Z,98378.44
2022-09-27T07:18:08.608Z,98371.34
2022-09-27T07:20:38.685Z,98383.66
2022-09-27T07:23:07.178Z,98387.13
2022-09-27T07:25:34.828Z,98384.34
2022-09-27T07:28:06.883Z,98385.03
2022-09-27T07:30:35.531Z,98398.13
2022-09-27T07:33:04.595Z,98395.34
2022-09-27T07:35:31.428Z,98390.81
2022-09-27T07:37:59.287Z,98395.88
2022-09-27T07:40:27.134Z,98393.06
2022-09-27T07:42:58.231Z,98401.91
2022-09-27T07:45:26.447Z,98397.38
2022-09-27T07:48:07.018Z,98396.41
2022-09-27T07:50:58.204Z,98397.38
2022-09-27T07:53:45.917Z,98408.97
2022-09-27T07:56:33.169Z,98412.59
2022-09-27T07:59:00.435Z,98416.31
2022-09-27T08:01:26.983Z,98421.75
2022-09-27T08:03:54.007Z,98418.25
2022-09-27T08:06:20.943Z,98420.00
2022-09-27T08:08:47.898Z,98419.94
2022-09-27T08:11:18.244Z,98427.78
2022-09-27T08:13:46.516Z,98432.03
2022-09-27T08:16:14.244Z,98429.34
2022-09-27T08:19:15.967Z,98438.97
2022-09-27T08:21:58.926Z,98432.63
2022-09-27T08:24:29.148Z,98441.22
2022-09-27T08:27:11.550Z,98437.56
2022-09-27T08:29:50.760Z,98445.34
2022-09-27T08:32:20.810Z,98448.63
2022-09-27T08:34:49.750Z,98449.44
2022-09-27T08:37:16.258Z,98452.91
2022-09-27T08:39:47.571Z,98459.16
2022-09-27T08:42:21.013Z,98457.28
2022-09-27T08:45:03.345Z,98459.97
2022-09-27T08:47:38.885Z,98457.19
2022-09-27T08:50:28.002Z,98460.84
2022-09-27T08:53:19.298Z,98470.63
2022-09-27T08:55:52.656Z,98470.56
2022-09-27T08:58:32.152Z,98472.00
2022-09-27T09:01:04.368Z,98472.94
2022-09-27T09:03:45.816Z,98477.25
2022-09-27T09:06:37.477Z,98484.72
2022-09-27T09:09:42.736Z,98482.16
2022-09-27T09:12:47.816Z,98488.44
2022-09-27T09:15:26.755Z,98497.44
2022-09-27T09:18:38.504Z,98500.28
2022-09-27T09:21:44.339Z,98498.94
2022-09-27T09:24:47.551Z,98503.63
2022-09-27T09:27:29.564Z,98506.31
2022-09-27T09:30:19.596Z,98498.50
2022-09-27T09:33:16.541Z,98505.47
2022-09-27T09:35:58.873Z,98502.72
2022-09-27T09:38:41.887Z,98507.91
2022-09-27T09:41:22.125Z,98509.47
2022-09-27T09:43:56.529Z,98510.03
2022-09-27T09:46:27.101Z,98513.16
2022-09-27T09:49:01.023Z,98518.91
2022-09-27T09:51:36.117Z,98504.34
2022-09-27T09:54:13.550Z,98516.16
2022-09-27T09:56:48.964Z,98519.13
2022-09-27T09:59:23.320Z,98509.16
2022-09-27T10:01:56.105Z,98519.91
2022-09-27T10:04:28.583Z,98509.41
2022-09-27T10:06:59.550Z,98512.28
2022-09-27T10:09:29.681Z,98509.56
2022-09-27T10:12:17.473Z,98511.59
2022-09-27T10:14:48.160Z,98498.28
2022-09-27T10:17:18.256Z,98505.63
2022-09-27T10:19:48.568Z,98506.88
2022-09-27T10:22:22.474Z,98511.09
2022-09-27T10:25:03.611Z,98507.50
2022-09-27T10:27:46.350Z,98505.19
2022-09-27T10:30:34.087Z,98509.38
2022-09-27T10:33:16.658Z,98498.13
2022-09-27T10:35:47.079Z,98511.38
2022-09-27T10:38:24.977Z,98503.31
2022-09-27T10:40:59.113Z,98506.22
2022-09-27T10:43:37.033Z,98514.56
2022-09-27T10:46:27.581Z,98524.03
2022-09-27T10:49:20.204Z,98518.63
2022-09-27T10:51:54.765Z,98516.59
2022-09-27T10:54:36.540Z,98519.19
2022-09-27T10:57:06.100Z,98512.91
2022-09-27T10:59:42.591Z,98521.38
2022-09-27T11:02:29.922Z,98522.22
2022-09-27T11:05:16.108Z,98522.97
2022-09-27T11:07:53.790Z,98521.09
2022-09-27T11:10:36.244Z,98512.91
2022-09-27T11:13:19.292Z,98528.44
2022-09-27T11:16:21.120Z,98529.22
2022-09-27T11:19:25.528Z,98528.34
2022-09-27T11:22:12.328Z,98525.69
2022-09-27T11:24:44.534Z,98525.84
2022-09-27T11:27:35.647Z,98529.06
2022-09-27T11:30:10.416Z,98532.38
2022-09-27T11:33:27.399Z,98529.06
2022-09-27T11:36:19.523Z,98543.31
2022-09-27T11:39:07.949Z,98536.06
2022-09-27T11:41:45.316Z,98548.56
2022-09-27T11:44:48.221Z,98562.00
2022-09-27T11:47:16.067Z,98553.34
2022-09-27T11:50:21.216Z,98555.47
2022-09-27T11:53:05.527Z,98555.69
2022-09-27T11:55:47.386Z,98551.31
2022-09-27T11:58:56.323Z,98555.78
2022-09-27T12:01:48.992Z,98552.66
2022-09-27T12:04:40.035Z,98561.06
2022-09-27T12:07:51.025Z,98549.59
2022-09-27T12:10:19.227Z,98557.50
2022-09-27T12:12:52.307Z,98567.47
2022-09-27T12:15:26.739Z,98563.25
2022-09-27T12:18:02.463Z,98556.94
2022-09-27T12:20:34.756Z,98562.13
2022-09-27T12:23:05.981Z,98564.06
2022-09-27T12:25:51.581Z,98568.31
2022-09-27T12:28:51.095Z,98567.06
2022-09-27T12:31:29.774Z,98566.84
2022-09-27T12:34:12.674Z,98563.72
2022-09-27T12:36:46.371Z,98564.22
2022-09-27T12:39:34.869Z,98561.69
2022-09-27T12:42:30.236Z,98565.06
2022-09-27T12:45:00.116Z,98564.63
2022-09-27T12:47:53.310Z,98564.91
2022-09-27T12:50:34.690Z,98574.44
2022-09-27T12:53:15.828Z,98586.91
2022-09-27T12:56:18.937Z,98588.09
2022-09-27T12:59:02.807Z,98588.50
2022-09-27T13:01:42.875Z,98588.28
2022-09-27T13:04:37.128Z,98593.50
2022-09-27T13:07:24.548Z,98596.31
2022-09-27T13:10:12.566Z,98599.91
2022-09-27T13:12:47.609Z,98599.94
2022-09-27T13:15:21.461Z,98605.84
2022-09-27T13:17:54.262Z,98597.78
2022-09-27T13:20:35.574Z,98610.00
2022-09-27T13:23:20.760Z,98603.25
2022-09-27T13:25:59.796Z,98606.63
2022-09-27T13:29:02.003Z,98612.50
2022-09-27T13:31:53.920Z,98618.78
2022-09-27T13:34:48.078Z,98621.97
2022-09-27T13:37:45.628Z,98621.19
2022-09-27T13:40:15.985Z,98640.09
2022-09-27T13:43:12.014Z,98629.47
2022-09-27T13:45:55.035Z,98628.34
2022-09-27T13:48:35.535Z,98628.63
2022-09-27T13:51:11.616Z,98628.81
2022-09-27T13:53:40.139Z,98633.19
2022-09-27T13:56:36.117Z,98634.38
2022-09-27T13:59:12.482Z,98639.03
2022-09-27T14:02:18.959Z,98640.16
2022-09-27T14:04:51.617Z,98639.31
2022-09-27T14:07:24.456Z,98638.31
2022-09-27T14:10:00.620Z,98639.81
2022-09-27T14:12:40.701Z,98646.75
2022-09-27T14:15:19.390Z,98632.97
2022-09-27T14:17:46.536Z,98634.00
2022-09-27T14:20:43.019Z,98636.00
2022-09-27T14:23:24.586Z,98642.53
2022-09-27T14:25:53.780Z,98648.13
2022-09-27T14:28:30.455Z,98645.81
2022-09-27T14:31:18.475Z,98651.22
2022-09-27T14:34:13.858Z,98654.00
2022-09-27T14:37:03.849Z,98657.47
2022-09-27T14:39:37.891Z,98656.56
2022-09-27T14:42:29.034Z,98659.28
2022-09-27T14:45:01.370Z,98655.59
2022-09-27T14:47:28.276Z,98654.50
2022-09-27T14:50:13.301Z,98665.84
2022-09-27T14:52:40.031Z,98655.00
2022-09-27T14:55:08.427Z,98659.09
2022-09-27T14:57:37.128Z,98664.22
2022-09-27T15:00:35.232Z,98664.13
2022-09-27T15:03:05.799Z,98671.13
2022-09-27T15:05:34.826Z,98670.19
2022-09-27T15:08:06.425Z,98669.41
2022-09-27T15:10:36.557Z,98673.09
2022-09-27T15:13:05.312Z,98678.50
2022-09-27T15:15:35.234Z,98669.47
2022-09-27T15:18:04.021Z,98671.91
2022-09-27T15:20:35.203Z,98673.69
2022-09-27T15:23:04.273Z,98669.31
2022-09-27T15:25:39.116Z,98675.50
2022-09-27T15:28:16.406Z,98670.09
2022-09-27T15:30:52.442Z,98668.00
2022-09-27T15:33:31.752Z,98664.66
2022-09-27T15:36:04.072Z,98670.28
2022-09-27T15:38:35.589Z,98675.72
2022-09-27T15:41:08.152Z,98675.06
2022-09-27T15:43:35.021Z,98687.69
2022-09-27T15:46:22.944Z,98693.94
2022-09-27T15:49:15.890Z,98677.25
2022-09-27T15:51:51.899Z,98681.66
2022-09-27T15:54:20.534Z,98683.47
2022-09-27T15:56:54.512Z,98681.78
2022-09-27T15:59:26.669Z,98681.00
2022-09-27T16:01:58.759Z,98693.41
2022-09-27T16:04:31.252Z,98685.50
2022-09-27T16:07:02.046Z,98689.16
2022-09-27T16:09:28.960Z,98691.16
2022-09-27T16:11:55.518Z,98694.84
2022-09-27T16:14:22.186Z,98701.13
2022-09-27T16:16:51.714Z,98696.84
2022-09-27T16:19:18.420Z,98703.22
2022-09-27T16:21:45.776Z,98708.72
2022-09-27T16:24:12.550Z,98705.47
2022-09-27T16:26:39.206Z,98707.38
2022-09-27T16:29:14.668Z,98705.75
2022-09-27T16:31:42.759Z,98709.34
2022-09-27T16:34:10.953Z,98711.16
2022-09-27T16:36:38.898Z,98715.66
2022-09-27T16:39:12.983Z,98712.16
2022-09-27T16:41:43.658Z,98714.91
2022-09-27T16:44:12.936Z,98717.56
2022-09-27T16:46:46.252Z,98719.41
2022-09-27T16:49:31.666Z,98723.91
2022-09-27T16:52:01.618Z,98721.38
2022-09-27T16:54:29.762Z,98720.47
2022-09-27T16:56:57.466Z,98727.53
2022-09-27T16:59:27.184Z,98719.66
2022-09-27T17:01:57.413Z,98721.50
2022-09-27T17:04:25.747Z,98709.25
2022-09-27T17:06:52.369Z,98706.63
2022-09-27T17:09:18.944Z,98707.50
2022-09-27T17:11:45.496Z,98705.75
2022-09-27T17:14:17.014Z,98704.06
2022-09-27T17:16:45.496Z,98707.59
2022-09-27T17:19:13.272Z,98707.59
2022-09-27T17:21:40.753Z,98704.94
2022-09-27T17:24:07.616Z,98704.03
2022-09-27T17:26:34.242Z,98704.94
2022-09-27T17:29:01.498Z,98703.13
2022-09-27T17:31:31.427Z,98708.34
2022-09-27T17:33:59.903Z,98712.72
2022-09-27T17:36:29.765Z,98709.16
2022-09-27T17:38:59.094Z,98712.56
2022-09-27T17:41:27.091Z,98705.44
2022-09-27T17:43:57.996Z,98718.63
2022-09-27T17:46:32.602Z,98705.41
2022-09-27T17:49:18.281Z,98723.06
2022-09-27T17:51:50.658Z,98729.19
2022-09-27T17:54:19.693Z,98720.38
2022-09-27T17:56:47.405Z,98730.97
2022-09-27T17:59:16.008Z,98723.06
2022-09-27T18:01:44.511Z,98723.06
2022-09-27T18:04:14.641Z,98723.91
2022-09-27T18:06:43.978Z,98734.38
2022-09-27T18:09:13.098Z,98722.88
2022-09-27T18:11:40.146Z,98729.88
2022-09-27T18:14:07.788Z,98727.25
2022-09-27T18:16:39.502Z,98738.69
2022-09-27T18:19:07.984Z,98736.97
2022-09-27T18:21:35.098Z,98738.75
2022-09-27T18:24:06.106Z,98739.69
2022-09-27T18:26:34.976Z,98745.88
2022-09-27T18:29:04.543Z,98737.97
2022-09-27T18:31:31.226Z,98744.16
2022-09-27T18:33:57.949Z,98737.97
2022-09-27T18:36:26.386Z,98742.41
2022-09-27T18:38:58.011Z,98742.41
2022-09-27T18:41:26.176Z,98744.16
2022-09-27T18:43:58.953Z,98739.78
2022-09-27T18:46:35.402Z,98739.75
2022-09-27T18:49:09.173Z,98744.16
2022-09-27T18:51:37.637Z,98747.72
2022-09-27T18:54:14.191Z,98743.31
2022-09-27T18:56:41.195Z,98741.50
2022-09-27T18:59:09.977Z,98745.88
2022-09-27T19:01:39.621Z,98741.47
2022-09-27T19:04:07.709Z,98738.84
2022-09-27T19:06:34.530Z,98740.59
2022-09-27T19:09:01.172Z,98739.75
2022-09-27T19:11:28.574Z,98744.16
2022-09-27T19:13:57.012Z,98741.53
2022-09-27T19:16:25.081Z,98740.66
2022-09-27T19:18:52.006Z,98738.03
2022-09-27T19:21:21.443Z,98742.44
2022-09-27T19:23:49.814Z,98746.00
2022-09-27T19:26:19.299Z,98744.34
2022-09-27T19:28:46.781Z,98745.28
2022-09-27T19:31:16.045Z,98740.97
2022-09-27T19:33:42.910Z,98740.97
2022-09-27T19:36:11.550Z,98740.06
2022-09-27T19:38:38.610Z,98745.28
2022-09-27T19:41:07.569Z,98739.09
2022-09-27T19:43:34.123Z,98745.19
2022-09-27T19:46:11.122Z,98746.03
2022-09-27T19:48:38.369Z,98740.72
2022-09-27T19:51:06.682Z,98744.19
2022-09-27T19:53:34.606Z,98745.03
2022-09-27T19:56:06.719Z,98744.09
2022-09-27T19:58:35.169Z,98746.69
2022-09-27T20:01:12.203Z,98748.47
2022-09-27T20:03:41.053Z,98750.22
2022-09-27T20:06:13.046Z,98753.72
2022-09-27T20:08:40.070Z,98752.84
2022-09-27T20:11:12.876Z,98747.56
2022-09-27T20:13:39.795Z,98746.63
2022-09-27T20:16:15.247Z,98752.84
2022-09-27T20:18:49.783Z,98742.25
2022-09-27T20:21:17.657Z,98744.06
2022-09-27T20:23:47.543Z,98744.91
2022-09-27T20:26:16.013Z,98751.13
2022-09-27T20:28:44.384Z,98748.50
2022-09-27T20:31:13.420Z,98745.84
2022-09-27T20:33:57.989Z,98744.97
2022-09-27T20:36:26.124Z,98751.13
2022-09-27T20:38:59.624Z,98746.72
2022-09-27T20:41:31.407Z,98735.34
2022-09-27T20:44:00.559Z,98736.25
2022-09-27T20:46:27.345Z,98736.28
2022-09-27T20:48:56.726Z,98733.66
2022-09-27T20:51:24.176Z,98732.00
2022-09-27T20:53:51.533Z,98727.72
2022-09-27T20:56:23.823Z,98735.81
2022-09-27T20:58:52.497Z,98741.19
2022-09-27T21:01:19.891Z,98738.63
2022-09-27T21:03:46.709Z,98731.63
2022-09-27T21:06:13.685Z,98735.19
2022-09-27T21:08:41.050Z,98745.75
2022-09-27T21:11:15.682Z,98743.16
2022-09-27T21:13:43.932Z,98747.59
2022-09-27T21:16:14.377Z,98750.28
2022-09-27T21:18:41.666Z,98747.63
2022-09-27T21:21:13.570Z,98745.84
2022-09-27T21:23:44.619Z,98751.06
2022-09-27T21:26:16.835Z,98747.50
2022-09-27T21:28:45.968Z,98744.75
2022-09-27T21:31:22.329Z,98747.34
2022-09-27T21:33:54.092Z,98735.88
2022-09-27T21:36:22.998Z,98745.53
2022-09-27T21:38:49.799Z,98748.09
2022-09-27T21:41:17.289Z,98744.56
2022-09-27T21:43:45.561Z,98749.81
2022-09-27T21:46:20.501Z,98744.50
2022-09-27T21:48:48.861Z,98747.09
2022-09-27T21:51:19.766Z,98744.47
2022-09-27T21:53:52.180Z,98742.69
2022-09-27T21:56:20.127Z,98746.19
2022-09-27T21:58:47.310Z,98746.19
2022-09-27T22:01:19.199Z,98743.53
2022-09-27T22:03:46.962Z,98741.78
2022-09-27T22:06:21.781Z,98740.03
2022-09-27T22:08:49.479Z,98743.56
2022-09-27T22:11:20.917Z,98740.88
2022-09-27T22:13:47.447Z,98742.59
2022-09-27T22:16:16.514Z,98743.44
2022-09-27T22:18:44.821Z,98746.03
2022-09-27T22:21:14.361Z,98749.53
2022-09-27T22:23:41.141Z,98742.53
2022-09-27T22:26:11.555Z,98741.66
2022-09-27T22:28:38.045Z,98742.56
2022-09-27T22:31:05.198Z,98747.97
2022-09-27T22:33:31.906Z,98741.81
2022-09-27T22:35:58.431Z,98740.97
2022-09-27T22:38:25.034Z,98744.53
2022-09-27T22:40:56.526Z,98743.59
2022-09-27T22:43:23.896Z,98738.31
2022-09-27T22:45:50.924Z,98740.97
2022-09-27T22:48:18.978Z,98740.09
2022-09-27T22:50:45.774Z,98740.09
2022-09-27T22:53:13.564Z,98733.06
2022-09-27T22:55:40.882Z,98731.31
2022-09-27T22:58:07.488Z,98737.47
2022-09-27T23:00:34.356Z,98732.19
2022-09-27T23:03:00.872Z,98731.28
2022-09-27T23:05:27.375Z,98729.50
2022-09-27T23:07:53.988Z,98727.75
2022-09-27T23:10:23.387Z,98721.59
2022-09-27T23:12:54.825Z,98719.81
2022-09-27T23:15:22.076Z,98721.59
2022-09-27T23:17:51.552Z,98716.28
2022-09-27T23:20:18.501Z,98718.03
2022-09-27T23:22:45.374Z,98718.88
2022-09-27T23:25:11.841Z,98723.25
2022-09-27T23:27:41.884Z,98726.75
2022-09-27T23:30:14.032Z,98717.94
2022-09-27T23:32:44.712Z,98715.28
2022-09-27T23:35:12.631Z,98716.16
2022-09-27T23:37:40.297Z,98716.16
2022-09-27T23:40:08.160Z,98717.97
2022-09-27T23:42:35.045Z,98717.09
2022-09-27T23:45:01.678Z,98718.94
2022-09-27T23:47:28.641Z,98717.22
2022-09-27T23:49:55.209Z,98716.38
2022-09-27T23:52:21.715Z,98716.44
2022-09-27T23:54:48.157Z,98715.69
2022-09-27T23:57:14.961Z,98708.72
2022-09-27T23:59:41.506Z,98712.34
